createdAt,value
2023-04-01T00:00:30.594Z,432.00
2023-04-01T00:01:30.664Z,432.00
2023-04-01T00:02:30.805Z,433.00
2023-04-01T00:03:30.974Z,436.00
2023-04-01T00:04:31.841Z,437.00
2023-04-01T00:05:31.322Z,436.00
2023-04-01T00:06:31.124Z,433.00
2023-04-01T00:07:31.225Z,434.00
2023-04-01T00:08:31.345Z,430.00
2023-04-01T00:09:31.417Z,436.00
2023-04-01T00:10:31.557Z,437.00
2023-04-01T00:11:31.545Z,438.00
2023-04-01T00:12:31.602Z,438.00
2023-04-01T00:13:31.673Z,438.00
2023-04-01T00:14:31.715Z,437.00
2023-04-01T00:15:31.887Z,437.00
2023-04-01T00:16:31.958Z,434.00
2023-04-01T00:17:32.034Z,433.00
2023-04-01T00:18:32.153Z,435.00
2023-04-01T00:19:32.205Z,434.00
2023-04-01T00:20:32.272Z,433.00
2023-04-01T00:21:32.392Z,434.00
2023-04-01T00:22:32.450Z,434.00
2023-04-01T00:23:32.517Z,431.00
2023-04-01T00:24:32.621Z,432.00
2023-04-01T00:25:33.067Z,431.00
2023-04-01T00:26:32.791Z,429.00
2023-04-01T00:27:32.940Z,428.00
2023-04-01T00:28:32.998Z,429.00
2023-04-01T00:29:33.095Z,427.00
2023-04-01T00:30:33.174Z,426.00
2023-04-01T00:31:33.303Z,424.00
2023-04-01T00:32:33.367Z,424.00
2023-04-01T00:33:33.457Z,425.00
2023-04-01T00:34:33.592Z,422.00
2023-04-01T00:35:33.930Z,422.00
2023-04-01T00:36:33.797Z,423.00
2023-04-01T00:37:33.786Z,424.00
2023-04-01T00:38:33.914Z,428.00
2023-04-01T00:39:33.875Z,427.00
2023-04-01T00:40:33.926Z,427.00
2023-04-01T00:41:33.984Z,427.00
2023-04-01T00:42:34.047Z,430.00
2023-04-01T00:43:34.102Z,433.00
2023-04-01T00:44:34.172Z,432.00
2023-04-01T00:45:34.374Z,431.00
2023-04-01T00:46:34.292Z,430.00
2023-04-01T00:47:34.344Z,432.00
2023-04-01T00:48:34.424Z,432.00
2023-04-01T00:49:34.505Z,432.00
2023-04-01T00:50:34.576Z,430.00
2023-04-01T00:51:34.638Z,431.00
2023-04-01T00:52:34.767Z,432.00
2023-04-01T00:53:34.808Z,433.00
2023-04-01T00:54:34.896Z,435.00
2023-04-01T00:55:34.930Z,434.00
2023-04-01T00:56:35.023Z,437.00
2023-04-01T00:57:35.136Z,436.00
2023-04-01T00:58:35.313Z,436.00
2023-04-01T00:59:35.358Z,434.00
2023-04-01T01:00:35.465Z,437.00
2023-04-01T01:01:35.519Z,436.00
2023-04-01T01:02:35.649Z,435.00
2023-04-01T01:03:35.591Z,436.00
2023-04-01T01:04:35.655Z,436.00
2023-04-01T01:05:48.139Z,434.00
2023-04-01T01:06:36.760Z,434.00
2023-04-01T01:07:35.800Z,435.00
2023-04-01T01:08:35.836Z,435.00
2023-04-01T01:09:35.903Z,436.00
2023-04-01T01:10:35.948Z,434.00
2023-04-01T01:11:42.543Z,431.00
2023-04-01T01:12:37.050Z,432.00
2023-04-01T01:13:36.079Z,434.00
2023-04-01T01:14:36.126Z,435.00
2023-04-01T01:15:36.151Z,434.00
2023-04-01T01:16:36.257Z,432.00
2023-04-01T01:17:36.257Z,433.00
2023-04-01T01:18:36.277Z,436.00
2023-04-01T01:19:36.327Z,437.00
2023-04-01T01:20:36.368Z,436.00
2023-04-01T01:21:36.412Z,434.00
2023-04-01T01:22:36.448Z,434.00
2023-04-01T01:23:36.511Z,432.00
2023-04-01T01:24:36.541Z,431.00
2023-04-01T01:25:36.580Z,431.00
2023-04-01T01:26:36.617Z,430.00
2023-04-01T01:27:36.662Z,431.00
2023-04-01T01:28:36.802Z,429.00
2023-04-01T01:29:36.810Z,429.00
2023-04-01T01:30:36.908Z,431.00
2023-04-01T01:31:36.968Z,428.00
2023-04-01T01:32:37.203Z,426.00
2023-04-01T01:33:37.200Z,427.00
2023-04-01T01:34:37.210Z,430.00
2023-04-01T01:35:37.273Z,432.00
2023-04-01T01:36:37.323Z,430.00
2023-04-01T01:37:37.402Z,429.00
2023-04-01T01:38:37.472Z,426.00
2023-04-01T01:39:37.561Z,424.00
2023-04-01T01:40:37.641Z,424.00
2023-04-01T01:41:37.709Z,426.00
2023-04-01T01:42:37.777Z,429.00
2023-04-01T01:43:37.851Z,430.00
2023-04-01T01:44:37.935Z,431.00
2023-04-01T01:45:37.971Z,431.00
2023-04-01T01:46:38.105Z,432.00
2023-04-01T01:47:38.165Z,432.00
2023-04-01T01:48:38.189Z,435.00
2023-04-01T01:49:38.320Z,437.00
2023-04-01T01:50:38.381Z,435.00
2023-04-01T01:51:38.472Z,436.00
2023-04-01T01:52:38.565Z,437.00
2023-04-01T01:53:38.644Z,437.00
2023-04-01T01:54:38.719Z,436.00
2023-04-01T01:55:38.829Z,433.00
2023-04-01T01:56:38.840Z,430.00
2023-04-01T01:57:39.044Z,428.00
2023-04-01T01:58:39.070Z,426.00
2023-04-01T01:59:39.150Z,426.00
2023-04-01T02:00:39.225Z,427.00
2023-04-01T02:01:39.367Z,430.00
2023-04-01T02:02:39.364Z,427.00
2023-04-01T02:03:39.502Z,427.00
2023-04-01T02:04:39.589Z,428.00
2023-04-01T02:05:39.656Z,430.00
2023-04-01T02:06:39.732Z,430.00
2023-04-01T02:07:39.794Z,430.00
2023-04-01T02:08:39.931Z,431.00
2023-04-01T02:09:39.932Z,434.00
2023-04-01T02:10:40.045Z,435.00
2023-04-01T02:11:40.093Z,435.00
2023-04-01T02:12:40.168Z,437.00
2023-04-01T02:13:40.230Z,436.00
2023-04-01T02:14:40.283Z,434.00
2023-04-01T02:15:40.860Z,435.00
2023-04-01T02:16:40.397Z,434.00
2023-04-01T02:17:40.457Z,434.00
2023-04-01T02:18:40.538Z,436.00
2023-04-01T02:19:40.607Z,434.00
2023-04-01T02:20:40.663Z,434.00
2023-04-01T02:21:40.751Z,433.00
2023-04-01T02:22:40.859Z,431.00
2023-04-01T02:23:40.942Z,432.00
2023-04-01T02:24:41.044Z,432.00
2023-04-01T02:25:41.133Z,433.00
2023-04-01T02:26:41.218Z,433.00
2023-04-01T02:27:41.268Z,435.00
2023-04-01T02:28:41.286Z,434.00
2023-04-01T02:29:41.325Z,434.00
2023-04-01T02:30:41.420Z,429.00
2023-04-01T02:31:41.485Z,429.00
2023-04-01T02:32:41.473Z,427.00
2023-04-01T02:33:41.526Z,428.00
2023-04-01T02:34:41.603Z,428.00
2023-04-01T02:35:41.642Z,427.00
2023-04-01T02:36:41.675Z,427.00
2023-04-01T02:37:41.712Z,425.00
2023-04-01T02:38:41.767Z,430.00
2023-04-01T02:39:41.898Z,428.00
2023-04-01T02:40:41.967Z,427.00
2023-04-01T02:41:42.082Z,430.00
2023-04-01T02:42:42.254Z,426.00
2023-04-01T02:43:42.319Z,424.00
2023-04-01T02:44:42.408Z,429.00
2023-04-01T02:45:42.521Z,427.00
2023-04-01T02:46:42.666Z,431.00
2023-04-01T02:47:42.705Z,431.00
2023-04-01T02:48:42.825Z,432.00
2023-04-01T02:49:42.863Z,432.00
2023-04-01T02:50:43.046Z,434.00
2023-04-01T02:51:43.144Z,435.00
2023-04-01T02:52:43.220Z,436.00
2023-04-01T02:53:43.301Z,434.00
2023-04-01T02:54:43.401Z,439.00
2023-04-01T02:55:43.532Z,438.00
2023-04-01T02:56:43.636Z,437.00
2023-04-01T02:57:43.728Z,436.00
2023-04-01T02:58:43.859Z,438.00
2023-04-01T02:59:43.926Z,438.00
2023-04-01T03:00:43.988Z,438.00
2023-04-01T03:01:44.859Z,439.00
2023-04-01T03:02:44.124Z,440.00
2023-04-01T03:03:45.162Z,440.00
2023-04-01T03:04:44.121Z,440.00
2023-04-01T03:05:44.179Z,440.00
2023-04-01T03:06:44.227Z,441.00
2023-04-01T03:07:44.292Z,441.00
2023-04-01T03:08:44.339Z,439.00
2023-04-01T03:09:44.409Z,439.00
2023-04-01T03:10:44.418Z,439.00
2023-04-01T03:11:44.458Z,438.00
2023-04-01T03:12:44.529Z,440.00
2023-04-01T03:13:44.545Z,440.00
2023-04-01T03:14:44.593Z,439.00
2023-04-01T03:15:44.694Z,441.00
2023-04-01T03:16:44.715Z,439.00
2023-04-01T03:17:44.762Z,439.00
2023-04-01T03:18:44.780Z,436.00
2023-04-01T03:19:45.014Z,436.00
2023-04-01T03:20:45.800Z,432.00
2023-04-01T03:21:44.998Z,432.00
2023-04-01T03:22:45.131Z,432.00
2023-04-01T03:23:45.188Z,432.00
2023-04-01T03:24:45.294Z,435.00
2023-04-01T03:25:45.413Z,434.00
2023-04-01T03:26:45.611Z,433.00
2023-04-01T03:27:45.586Z,434.00
2023-04-01T03:28:45.631Z,434.00
2023-04-01T03:29:45.744Z,435.00
2023-04-01T03:30:45.803Z,436.00
2023-04-01T03:31:45.907Z,436.00
2023-04-01T03:32:46.897Z,436.00
2023-04-01T03:33:45.928Z,433.00
2023-04-01T03:34:46.812Z,434.00
2023-04-01T03:35:46.022Z,436.00
2023-04-01T03:36:46.201Z,437.00
2023-04-01T03:37:46.126Z,438.00
2023-04-01T03:38:46.230Z,441.00
2023-04-01T03:39:46.338Z,439.00
2023-04-01T03:40:46.495Z,442.00
2023-04-01T03:41:46.478Z,441.00
2023-04-01T03:42:46.566Z,439.00
2023-04-01T03:43:46.707Z,435.00
2023-04-01T03:44:46.752Z,435.00
2023-04-01T03:45:46.923Z,434.00
2023-04-01T03:46:46.991Z,435.00
2023-04-01T03:47:47.080Z,437.00
2023-04-01T03:48:47.081Z,438.00
2023-04-01T03:49:47.206Z,438.00
2023-04-01T03:50:47.272Z,437.00
2023-04-01T03:51:47.390Z,438.00
2023-04-01T03:52:47.464Z,438.00
2023-04-01T03:53:47.580Z,440.00
2023-04-01T03:54:47.656Z,437.00
2023-04-01T03:55:47.781Z,438.00
2023-04-01T03:56:47.871Z,435.00
2023-04-01T03:57:47.964Z,436.00
2023-04-01T03:58:48.028Z,437.00
2023-04-01T03:59:48.144Z,436.00
2023-04-01T04:00:48.222Z,438.00
2023-04-01T04:01:48.285Z,439.00
2023-04-01T04:02:48.511Z,440.00
2023-04-01T04:03:48.561Z,441.00
2023-04-01T04:04:48.640Z,442.00
2023-04-01T04:05:48.670Z,447.00
2023-04-01T04:06:48.749Z,448.00
2023-04-01T04:07:48.845Z,449.00
2023-04-01T04:08:48.942Z,450.00
2023-04-01T04:09:49.050Z,447.00
2023-04-01T04:10:49.134Z,447.00
2023-04-01T04:11:49.269Z,446.00
2023-04-01T04:12:49.372Z,446.00
2023-04-01T04:13:49.502Z,444.00
2023-04-01T04:14:50.328Z,444.00
2023-04-01T04:15:49.701Z,447.00
2023-04-01T04:16:50.301Z,445.00
2023-04-01T04:17:49.905Z,446.00
2023-04-01T04:18:49.930Z,447.00
2023-04-01T04:19:50.005Z,446.00
2023-04-01T04:20:50.088Z,446.00
2023-04-01T04:21:50.172Z,445.00
2023-04-01T04:22:50.328Z,444.00
2023-04-01T04:23:50.438Z,446.00
2023-04-01T04:24:51.322Z,444.00
2023-04-01T04:25:50.643Z,443.00
2023-04-01T04:26:50.730Z,443.00
2023-04-01T04:27:50.784Z,438.00
2023-04-01T04:28:50.854Z,435.00
2023-04-01T04:29:50.970Z,435.00
2023-04-01T04:30:51.047Z,433.00
2023-04-01T04:31:51.182Z,435.00
2023-04-01T04:32:51.248Z,435.00
2023-04-01T04:33:51.270Z,436.00
2023-04-01T04:34:51.316Z,437.00
2023-04-01T04:35:51.393Z,435.00
2023-04-01T04:36:51.470Z,436.00
2023-04-01T04:37:51.526Z,436.00
2023-04-01T04:38:51.681Z,436.00
2023-04-01T04:39:51.677Z,436.00
2023-04-01T04:40:51.743Z,437.00
2023-04-01T04:41:52.441Z,438.00
2023-04-01T04:42:51.968Z,442.00
2023-04-01T04:43:52.093Z,445.00
2023-04-01T04:44:52.166Z,445.00
2023-04-01T04:45:52.223Z,446.00
2023-04-01T04:46:52.396Z,445.00
2023-04-01T04:47:53.348Z,444.00
2023-04-01T04:48:52.498Z,440.00
2023-04-01T04:49:52.581Z,440.00
2023-04-01T04:50:52.700Z,442.00
2023-04-01T04:51:52.803Z,443.00
2023-04-01T04:52:52.876Z,441.00
2023-04-01T04:53:53.369Z,444.00
2023-04-01T04:54:53.041Z,445.00
2023-04-01T04:55:53.126Z,443.00
2023-04-01T04:56:53.383Z,445.00
2023-04-01T04:57:53.258Z,443.00
2023-04-01T04:58:53.344Z,442.00
2023-04-01T04:59:53.421Z,441.00
2023-04-01T05:00:53.516Z,441.00
2023-04-01T05:01:53.590Z,442.00
2023-04-01T05:02:53.817Z,443.00
2023-04-01T05:03:53.796Z,443.00
2023-04-01T05:04:54.320Z,443.00
2023-04-01T05:05:54.812Z,439.00
2023-04-01T05:06:53.948Z,438.00
2023-04-01T05:07:54.053Z,438.00
2023-04-01T05:08:54.208Z,437.00
2023-04-01T05:09:54.369Z,437.00
2023-04-01T05:10:54.320Z,439.00
2023-04-01T05:11:54.370Z,442.00
2023-04-01T05:12:54.456Z,443.00
2023-04-01T05:13:55.316Z,443.00
2023-04-01T05:14:54.627Z,441.00
2023-04-01T05:15:54.681Z,444.00
2023-04-01T05:16:54.873Z,445.00
2023-04-01T05:17:55.002Z,443.00
2023-04-01T05:18:54.969Z,446.00
2023-04-01T05:19:55.056Z,445.00
2023-04-01T05:20:55.156Z,445.00
2023-04-01T05:21:55.270Z,445.00
2023-04-01T05:22:55.361Z,448.00
2023-04-01T05:23:55.433Z,448.00
2023-04-01T05:24:55.527Z,445.00
2023-04-01T05:25:55.599Z,443.00
2023-04-01T05:26:56.969Z,444.00
2023-04-01T05:27:56.319Z,443.00
2023-04-01T05:28:55.896Z,442.00
2023-04-01T05:29:55.992Z,446.00
2023-04-01T05:30:56.094Z,448.00
2023-04-01T05:31:56.125Z,442.00
2023-04-01T05:32:56.249Z,444.00
2023-04-01T05:33:56.257Z,441.00
2023-04-01T05:34:56.276Z,443.00
2023-04-01T05:35:56.333Z,443.00
2023-04-01T05:36:56.351Z,443.00
2023-04-01T05:37:56.389Z,441.00
2023-04-01T05:38:56.515Z,440.00
2023-04-01T05:39:56.441Z,439.00
2023-04-01T05:40:56.477Z,439.00
2023-04-01T05:41:56.497Z,439.00
2023-04-01T05:42:56.556Z,438.00
2023-04-01T05:43:56.597Z,440.00
2023-04-01T05:44:56.628Z,441.00
2023-04-01T05:45:56.742Z,439.00
2023-04-01T05:46:56.771Z,437.00
2023-04-01T05:47:56.925Z,437.00
2023-04-01T05:48:56.968Z,438.00
2023-04-01T05:49:57.057Z,438.00
2023-04-01T05:50:57.135Z,441.00
2023-04-01T05:51:57.224Z,441.00
2023-04-01T05:52:57.321Z,442.00
2023-04-01T05:53:57.363Z,440.00
2023-04-01T05:54:57.417Z,439.00
2023-04-01T05:55:57.468Z,440.00
2023-04-01T05:56:57.588Z,441.00
2023-04-01T05:57:57.633Z,442.00
2023-04-01T05:58:57.704Z,441.00
2023-04-01T05:59:57.766Z,442.00
2023-04-01T06:01:08.768Z,442.00
2023-04-01T06:01:59.842Z,443.00
2023-04-01T06:02:57.933Z,442.00
2023-04-01T06:03:57.928Z,442.00
2023-04-01T06:04:57.985Z,443.00
2023-04-01T06:05:57.906Z,444.00
2023-04-01T06:06:57.934Z,443.00
2023-04-01T06:07:58.018Z,445.00
2023-04-01T06:08:58.093Z,444.00
2023-04-01T06:09:58.172Z,443.00
2023-04-01T06:10:58.262Z,443.00
2023-04-01T06:11:58.387Z,444.00
2023-04-01T06:12:58.405Z,445.00
2023-04-01T06:13:58.483Z,445.00
2023-04-01T06:14:58.519Z,445.00
2023-04-01T06:15:58.586Z,446.00
2023-04-01T06:16:58.590Z,443.00
2023-04-01T06:17:58.764Z,444.00
2023-04-01T06:18:58.762Z,445.00
2023-04-01T06:19:58.825Z,442.00
2023-04-01T06:20:58.913Z,443.00
2023-04-01T06:21:58.971Z,442.00
2023-04-01T06:22:59.051Z,442.00
2023-04-01T06:23:59.094Z,440.00
2023-04-01T06:24:59.819Z,440.00
2023-04-01T06:25:59.229Z,441.00
2023-04-01T06:26:59.230Z,440.00
2023-04-01T06:27:59.275Z,442.00
2023-04-01T06:28:59.320Z,443.00
2023-04-01T06:29:59.330Z,443.00
2023-04-01T06:30:59.379Z,443.00
2023-04-01T06:31:59.394Z,442.00
2023-04-01T06:32:59.445Z,442.00
2023-04-01T06:33:59.410Z,441.00
2023-04-01T06:34:59.423Z,437.00
2023-04-01T06:35:59.529Z,439.00
2023-04-01T06:36:59.502Z,441.00
2023-04-01T06:37:59.493Z,442.00
2023-04-01T06:38:59.495Z,444.00
2023-04-01T06:39:59.545Z,444.00
2023-04-01T06:40:59.537Z,444.00
2023-04-01T06:41:59.568Z,442.00
2023-04-01T06:42:59.652Z,443.00
2023-04-01T06:43:59.744Z,445.00
2023-04-01T06:44:59.754Z,442.00
2023-04-01T06:46:00.840Z,443.00
2023-04-01T06:47:00.837Z,441.00
2023-04-01T06:47:59.961Z,439.00
2023-04-01T06:48:59.965Z,436.00
2023-04-01T06:50:00.008Z,438.00
2023-04-01T06:51:00.079Z,434.00
2023-04-01T06:52:00.129Z,432.00
2023-04-01T06:53:00.166Z,458.00
2023-04-01T06:54:00.183Z,423.00
2023-04-01T06:55:00.260Z,430.00
2023-04-01T06:56:00.298Z,430.00
2023-04-01T06:57:00.350Z,429.00
2023-04-01T06:58:00.416Z,429.00
2023-04-01T06:59:00.530Z,430.00
2023-04-01T07:00:00.420Z,429.00
2023-04-01T07:01:00.467Z,432.00
2023-04-01T07:02:00.513Z,436.00
2023-04-01T07:03:00.626Z,434.00
2023-04-01T07:04:00.694Z,434.00
2023-04-01T07:05:00.816Z,433.00
2023-04-01T07:06:00.698Z,435.00
2023-04-01T07:07:00.796Z,435.00
2023-04-01T07:08:00.827Z,432.00
2023-04-01T07:09:01.791Z,433.00
2023-04-01T07:10:00.869Z,437.00
2023-04-01T07:11:00.889Z,440.00
2023-04-01T07:12:00.888Z,437.00
2023-04-01T07:13:00.896Z,435.00
2023-04-01T07:14:00.963Z,436.00
2023-04-01T07:15:00.914Z,430.00
2023-04-01T07:16:00.880Z,426.00
2023-04-01T07:17:00.958Z,425.00
2023-04-01T07:18:00.895Z,424.00
2023-04-01T07:19:00.871Z,425.00
2023-04-01T07:20:00.901Z,428.00
2023-04-01T07:21:00.866Z,430.00
2023-04-01T07:22:00.853Z,430.00
2023-04-01T07:23:00.852Z,431.00
2023-04-01T07:24:00.863Z,426.00
2023-04-01T07:25:00.855Z,431.00
2023-04-01T07:26:00.880Z,433.00
2023-04-01T07:27:00.849Z,440.00
2023-04-01T07:28:00.842Z,436.00
2023-04-01T07:29:00.840Z,434.00
2023-04-01T07:30:00.837Z,433.00
2023-04-01T07:31:00.845Z,428.00
2023-04-01T07:32:00.813Z,433.00
2023-04-01T07:33:00.814Z,428.00
2023-04-01T07:34:00.838Z,428.00
2023-04-01T07:35:00.853Z,432.00
2023-04-01T07:36:00.854Z,427.00
2023-04-01T07:37:00.785Z,425.00
2023-04-01T07:38:00.803Z,425.00
2023-04-01T07:39:00.805Z,428.00
2023-04-01T07:40:00.765Z,434.00
2023-04-01T07:41:00.765Z,428.00
2023-04-01T07:42:00.764Z,429.00
2023-04-01T07:43:00.819Z,428.00
2023-04-01T07:44:00.856Z,423.00
2023-04-01T07:45:00.891Z,423.00
2023-04-01T07:46:00.973Z,426.00
2023-04-01T07:47:00.968Z,426.00
2023-04-01T07:48:01.004Z,424.00
2023-04-01T07:49:00.967Z,424.00
2023-04-01T07:50:01.011Z,423.00
2023-04-01T07:51:00.998Z,417.00
2023-04-01T07:52:00.991Z,415.00
2023-04-01T07:53:00.975Z,416.00
2023-04-01T07:54:00.945Z,414.00
2023-04-01T07:55:00.912Z,413.00
2023-04-01T07:56:00.925Z,424.00
2023-04-01T07:57:00.958Z,418.00
2023-04-01T07:58:00.957Z,420.00
2023-04-01T07:59:01.342Z,424.00
2023-04-01T08:00:00.904Z,415.00
2023-04-01T08:01:00.868Z,430.00
2023-04-01T08:02:00.868Z,419.00
2023-04-01T08:03:00.964Z,420.00
2023-04-01T08:04:01.085Z,414.00
2023-04-01T08:05:00.947Z,426.00
2023-04-01T08:06:00.957Z,421.00
2023-04-01T08:07:00.872Z,415.00
2023-04-01T08:08:00.874Z,399.00
2023-04-01T08:09:00.846Z,398.00
2023-04-01T08:10:00.882Z,416.00
2023-04-01T08:11:00.906Z,422.00
2023-04-01T08:12:00.846Z,416.00
2023-04-01T08:13:00.885Z,413.00
2023-04-01T08:14:00.889Z,400.00
2023-04-01T08:15:00.878Z,404.00
2023-04-01T08:16:00.898Z,412.00
2023-04-01T08:17:00.805Z,409.00
2023-04-01T08:18:00.806Z,408.00
2023-04-01T08:19:00.750Z,406.00
2023-04-01T08:20:00.763Z,410.00
2023-04-01T08:21:00.724Z,417.00
2023-04-01T08:22:00.721Z,413.00
2023-04-01T08:23:00.648Z,435.00
2023-04-01T08:24:00.652Z,410.00
2023-04-01T08:25:00.572Z,414.00
2023-04-01T08:26:00.566Z,413.00
2023-04-01T08:27:00.584Z,411.00
2023-04-01T08:28:00.560Z,413.00
2023-04-01T08:29:00.614Z,414.00
2023-04-01T08:30:00.570Z,418.00
2023-04-01T08:31:00.559Z,414.00
2023-04-01T08:32:01.401Z,410.00
2023-04-01T08:33:00.599Z,402.00
2023-04-01T08:34:00.564Z,408.00
2023-04-01T08:35:00.502Z,411.00
2023-04-01T08:36:00.582Z,400.00
2023-04-01T08:37:00.503Z,401.00
2023-04-01T08:38:00.459Z,418.00
2023-04-01T08:39:00.425Z,408.00
2023-04-01T08:40:00.393Z,412.00
2023-04-01T08:41:00.310Z,416.00
2023-04-01T08:42:00.252Z,402.00
2023-04-01T08:43:00.200Z,417.00
2023-04-01T08:44:00.215Z,407.00
2023-04-01T08:45:00.082Z,374.00
2023-04-01T08:46:00.084Z,409.00
2023-04-01T08:47:00.011Z,420.00
2023-04-01T08:47:59.951Z,404.00
2023-04-01T08:48:59.855Z,407.00
2023-04-01T08:49:59.870Z,405.00
2023-04-01T08:50:59.864Z,397.00
2023-04-01T08:51:59.834Z,406.00
2023-04-01T08:52:59.809Z,400.00
2023-04-01T08:53:59.803Z,398.00
2023-04-01T08:54:59.818Z,406.00
2023-04-01T08:55:59.778Z,406.00
2023-04-01T08:56:59.816Z,408.00
2023-04-01T08:57:59.676Z,408.00
2023-04-01T08:58:59.672Z,453.00
2023-04-01T08:59:59.643Z,402.00
2023-04-01T09:00:59.623Z,418.00
2023-04-01T09:01:59.638Z,423.00
2023-04-01T09:02:59.708Z,407.00
2023-04-01T09:03:59.743Z,411.00
2023-04-01T09:04:59.681Z,407.00
2023-04-01T09:05:59.658Z,406.00
2023-04-01T09:06:59.650Z,405.00
2023-04-01T09:07:59.638Z,406.00
2023-04-01T09:08:59.604Z,402.00
2023-04-01T09:09:59.619Z,435.00
2023-04-01T09:10:59.622Z,403.00
2023-04-01T09:11:59.562Z,412.00
2023-04-01T09:12:59.477Z,412.00
2023-04-01T09:13:59.466Z,411.00
2023-04-01T09:14:59.477Z,415.00
2023-04-01T09:16:00.378Z,414.00
2023-04-01T09:16:59.396Z,412.00
2023-04-01T09:17:59.407Z,411.00
2023-04-01T09:18:59.358Z,417.00
2023-04-01T09:19:59.353Z,445.00
2023-04-01T09:20:59.307Z,419.00
2023-04-01T09:21:59.294Z,415.00
2023-04-01T09:22:59.261Z,408.00
2023-04-01T09:23:59.237Z,408.00
2023-04-01T09:24:59.370Z,413.00
2023-04-01T09:25:59.863Z,414.00
2023-04-01T09:26:59.787Z,420.00
2023-04-01T09:27:59.063Z,411.00
2023-04-01T09:28:59.050Z,412.00
2023-04-01T09:29:59.048Z,416.00
2023-04-01T09:30:59.891Z,409.00
2023-04-01T09:31:58.969Z,420.00
2023-04-01T09:32:58.982Z,415.00
2023-04-01T09:33:59.378Z,409.00
2023-04-01T09:34:58.839Z,414.00
2023-04-01T09:35:58.819Z,417.00
2023-04-01T09:37:00.395Z,416.00
2023-04-01T09:37:58.789Z,414.00
2023-04-01T09:38:59.369Z,392.00
2023-04-01T09:39:58.702Z,428.00
2023-04-01T09:40:58.636Z,409.00
2023-04-01T09:41:58.601Z,456.00
2023-04-01T09:42:58.564Z,411.00
2023-04-01T09:43:59.365Z,445.00
2023-04-01T09:44:58.613Z,434.00
2023-04-01T09:45:58.629Z,421.00
2023-04-01T09:46:59.360Z,417.00
2023-04-01T09:47:58.512Z,427.00
2023-04-01T09:48:59.361Z,422.00
2023-04-01T09:49:58.353Z,424.00
2023-04-01T09:50:58.866Z,420.00
2023-04-01T09:51:58.879Z,430.00
2023-04-01T09:52:58.333Z,416.00
2023-04-01T09:53:58.967Z,414.00
2023-04-01T09:54:58.285Z,418.00
2023-04-01T09:55:58.930Z,417.00
2023-04-01T09:56:58.290Z,423.00
2023-04-01T09:57:58.243Z,410.00
2023-04-01T09:58:58.207Z,401.00
2023-04-01T09:59:58.223Z,388.00
2023-04-01T10:00:59.880Z,410.00
2023-04-01T10:01:58.183Z,411.00
2023-04-01T10:02:58.185Z,409.00
2023-04-01T10:03:58.108Z,419.00
2023-04-01T10:04:58.116Z,417.00
2023-04-01T10:05:58.122Z,415.00
2023-04-01T10:06:58.088Z,421.00
2023-04-01T10:07:58.872Z,415.00
2023-04-01T10:08:58.024Z,412.00
2023-04-01T10:09:58.369Z,410.00
2023-04-01T10:10:58.029Z,401.00
2023-04-01T10:11:58.029Z,414.00
2023-04-01T10:12:58.001Z,406.00
2023-04-01T10:13:58.031Z,418.00
2023-04-01T10:14:58.091Z,406.00
2023-04-01T10:16:02.896Z,391.00
2023-04-01T10:16:58.884Z,402.00
2023-04-01T10:17:57.883Z,408.00
2023-04-01T10:18:58.371Z,410.00
2023-04-01T10:19:57.735Z,412.00
2023-04-01T10:20:57.644Z,418.00
2023-04-01T10:21:57.634Z,417.00
2023-04-01T10:22:57.531Z,415.00
2023-04-01T10:23:57.541Z,411.00
2023-04-01T10:24:58.359Z,413.00
2023-04-01T10:25:57.401Z,413.00
2023-04-01T10:26:57.313Z,413.00
2023-04-01T10:27:57.878Z,404.00
2023-04-01T10:28:57.229Z,417.00
2023-04-01T10:29:57.204Z,406.00
2023-04-01T10:30:57.247Z,402.00
2023-04-01T10:31:57.219Z,409.00
2023-04-01T10:32:58.897Z,409.00
2023-04-01T10:33:57.136Z,413.00
2023-04-01T10:34:57.035Z,365.00
2023-04-01T10:35:57.028Z,423.00
2023-04-01T10:36:57.873Z,419.00
2023-04-01T10:37:56.885Z,408.00
2023-04-01T10:38:56.871Z,404.00
2023-04-01T10:39:56.824Z,408.00
2023-04-01T10:40:56.832Z,409.00
2023-04-01T10:41:56.703Z,407.00
2023-04-01T10:42:56.642Z,407.00
2023-04-01T10:43:56.868Z,405.00
2023-04-01T10:44:56.611Z,409.00
2023-04-01T10:45:56.593Z,412.00
2023-04-01T10:46:57.415Z,407.00
2023-04-01T10:47:56.541Z,408.00
2023-04-01T10:48:56.468Z,401.00
2023-04-01T10:49:56.424Z,398.00
2023-04-01T10:50:56.981Z,413.00
2023-04-01T10:51:56.439Z,416.00
2023-04-01T10:52:56.426Z,393.00
2023-04-01T10:53:56.384Z,399.00
2023-04-01T10:54:56.418Z,401.00
2023-04-01T10:55:56.306Z,449.00
2023-04-01T10:56:56.297Z,417.00
2023-04-01T10:57:56.190Z,418.00
2023-04-01T10:58:56.159Z,413.00
2023-04-01T10:59:56.119Z,412.00
2023-04-01T11:00:56.225Z,409.00
2023-04-01T11:02:10.178Z,392.00
2023-04-01T11:02:57.091Z,412.00
2023-04-01T11:03:56.000Z,352.00
2023-04-01T11:04:55.856Z,391.00
2023-04-01T11:05:55.770Z,390.00
2023-04-01T11:06:55.666Z,405.00
2023-04-01T11:08:05.333Z,407.00
2023-04-01T11:08:56.549Z,406.00
2023-04-01T11:09:55.446Z,413.00
2023-04-01T11:10:55.415Z,405.00
2023-04-01T11:11:55.264Z,398.00
2023-04-01T11:12:55.184Z,397.00
2023-04-01T11:13:57.868Z,394.00
2023-04-01T11:14:55.022Z,395.00
2023-04-01T11:15:55.078Z,400.00
2023-04-01T11:16:54.821Z,405.00
2023-04-01T11:17:54.866Z,407.00
2023-04-01T11:18:54.644Z,398.00
2023-04-01T11:19:54.706Z,400.00
2023-04-01T11:20:54.476Z,405.00
2023-04-01T11:21:54.395Z,407.00
2023-04-01T11:22:54.267Z,391.00
2023-04-01T11:24:04.547Z,400.00
2023-04-01T11:24:55.369Z,385.00
2023-04-01T11:25:54.237Z,403.00
2023-04-01T11:26:54.281Z,406.00
2023-04-01T11:27:54.152Z,409.00
2023-04-01T11:28:54.147Z,408.00
2023-04-01T11:30:00.201Z,412.00
2023-04-01T11:30:54.858Z,414.00
2023-04-01T11:31:54.340Z,376.00
2023-04-01T11:32:53.708Z,420.00
2023-04-01T11:33:53.533Z,399.00
2023-04-01T11:34:53.503Z,393.00
2023-04-01T11:35:53.365Z,403.00
2023-04-01T11:36:53.243Z,413.00
2023-04-01T11:37:53.113Z,405.00
2023-04-01T11:38:53.052Z,411.00
2023-04-01T11:39:53.019Z,433.00
2023-04-01T11:40:53.026Z,413.00
2023-04-01T11:41:52.961Z,403.00
2023-04-01T11:42:52.924Z,405.00
2023-04-01T11:43:52.874Z,403.00
2023-04-01T11:44:52.819Z,403.00
2023-04-01T11:45:52.810Z,399.00
2023-04-01T11:46:52.701Z,397.00
2023-04-01T11:47:52.692Z,401.00
2023-04-01T11:48:52.552Z,387.00
2023-04-01T11:49:52.483Z,411.00
2023-04-01T11:50:52.924Z,408.00
2023-04-01T11:51:52.382Z,419.00
2023-04-01T11:52:52.315Z,414.00
2023-04-01T11:53:52.232Z,415.00
2023-04-01T11:54:52.184Z,406.00
2023-04-01T11:55:52.213Z,401.00
2023-04-01T11:56:52.150Z,408.00
2023-04-01T11:57:51.988Z,401.00
2023-04-01T11:58:51.902Z,434.00
2023-04-01T11:59:51.836Z,418.00
2023-04-01T12:00:51.787Z,414.00
2023-04-01T12:01:51.758Z,407.00
2023-04-01T12:02:51.786Z,404.00
2023-04-01T12:03:51.659Z,401.00
2023-04-01T12:04:51.563Z,413.00
2023-04-01T12:05:51.437Z,408.00
2023-04-01T12:06:51.399Z,407.00
2023-04-01T12:07:51.337Z,402.00
2023-04-01T12:08:51.286Z,441.00
2023-04-01T12:09:51.153Z,406.00
2023-04-01T12:10:51.105Z,399.00
2023-04-01T12:11:51.059Z,402.00
2023-04-01T12:13:00.738Z,405.00
2023-04-01T12:13:51.898Z,407.00
2023-04-01T12:14:50.799Z,402.00
2023-04-01T12:15:50.677Z,406.00
2023-04-01T12:16:50.620Z,404.00
2023-04-01T12:17:50.508Z,401.00
2023-04-01T12:18:50.437Z,397.00
2023-04-01T12:19:50.284Z,408.00
2023-04-01T12:20:50.901Z,394.00
2023-04-01T12:21:50.094Z,402.00
2023-04-01T12:22:50.007Z,404.00
2023-04-01T12:23:49.862Z,406.00
2023-04-01T12:24:49.857Z,405.00
2023-04-01T12:25:49.695Z,400.00
2023-04-01T12:26:49.634Z,398.00
2023-04-01T12:27:51.449Z,394.00
2023-04-01T12:28:49.557Z,409.00